createdAt,value
2023-03-01T00:01:16.409Z,7.35
2023-03-01T00:03:44.503Z,4.50
2023-03-01T00:06:13.101Z,7.63
2023-03-01T00:08:41.195Z,6.18
2023-03-01T00:11:12.151Z,8.57
2023-03-01T00:13:39.872Z,5.45
2023-03-01T00:16:09.379Z,7.18
2023-03-01T00:18:38.569Z,5.20
2023-03-01T00:21:06.734Z,4.85
2023-03-01T00:23:36.273Z,5.88
2023-03-01T00:26:03.915Z,5.90
2023-03-01T00:28:31.444Z,6.07
2023-03-01T00:31:05.376Z,5.07
2023-03-01T00:33:33.020Z,7.78
2023-03-01T00:36:02.837Z,5.20
2023-03-01T00:38:31.043Z,5.45
2023-03-01T00:41:08.900Z,6.72
2023-03-01T00:43:38.677Z,4.38
2023-03-01T00:46:07.470Z,5.65
2023-03-01T00:48:35.741Z,6.22
2023-03-01T00:51:09.229Z,6.55
2023-03-01T00:53:37.746Z,7.20
2023-03-01T00:56:07.398Z,4.95
2023-03-01T00:58:36.265Z,7.25
2023-03-01T01:01:18.133Z,5.15
2023-03-01T01:03:47.827Z,5.47
2023-03-01T01:06:18.706Z,5.82
2023-03-01T01:08:46.375Z,5.60
2023-03-01T01:11:14.112Z,5.93
2023-03-01T01:13:42.133Z,6.13
2023-03-01T01:16:10.556Z,7.93
2023-03-01T01:18:38.170Z,8.13
2023-03-01T01:21:07.560Z,5.20
2023-03-01T01:23:36.542Z,5.70
2023-03-01T01:26:08.519Z,4.22
2023-03-01T01:28:36.369Z,6.03
2023-03-01T01:31:04.440Z,5.65
2023-03-01T01:33:32.270Z,5.07
2023-03-01T01:36:00.045Z,5.85
2023-03-01T01:38:27.664Z,6.50
2023-03-01T01:40:56.537Z,5.97
2023-03-01T01:43:25.558Z,3.83
2023-03-01T01:45:56.915Z,5.53
2023-03-01T01:48:41.438Z,5.22
2023-03-01T01:51:13.185Z,4.10
2023-03-01T01:53:41.821Z,4.35
2023-03-01T01:56:14.008Z,5.00
2023-03-01T01:58:43.532Z,3.72
2023-03-01T02:01:11.379Z,5.78
2023-03-01T02:03:43.291Z,8.25
2023-03-01T02:06:19.565Z,5.57
2023-03-01T02:08:49.601Z,4.53
2023-03-01T02:11:20.302Z,5.10
2023-03-01T02:13:50.066Z,5.35
2023-03-01T02:16:18.783Z,8.27
2023-03-01T02:18:46.740Z,6.20
2023-03-01T02:21:25.025Z,6.20
2023-03-01T02:23:52.626Z,5.47
2023-03-01T02:26:25.285Z,5.55
2023-03-01T02:28:54.323Z,4.30
2023-03-01T02:31:41.037Z,5.00
2023-03-01T02:34:10.256Z,3.88
2023-03-01T02:36:40.685Z,4.97
2023-03-01T02:39:15.423Z,5.07
2023-03-01T02:41:46.034Z,3.42
2023-03-01T02:44:15.547Z,5.80
2023-03-01T02:46:48.390Z,3.63
2023-03-01T02:49:23.251Z,5.65
2023-03-01T02:52:03.677Z,3.88
2023-03-01T02:54:35.832Z,3.38
2023-03-01T02:57:03.967Z,3.30
2023-03-01T02:59:40.361Z,3.83
2023-03-01T03:02:09.243Z,3.95
2023-03-01T03:04:36.844Z,4.97
2023-03-01T03:07:04.443Z,4.13
2023-03-01T03:09:32.030Z,4.72
2023-03-01T03:11:59.549Z,9.18
2023-03-01T03:14:27.380Z,4.80
2023-03-01T03:16:56.577Z,6.43
2023-03-01T03:19:24.141Z,4.30
2023-03-01T03:21:51.696Z,4.40
2023-03-01T03:24:19.402Z,4.95
2023-03-01T03:26:47.047Z,7.00
2023-03-01T03:29:14.942Z,6.85
2023-03-01T03:31:42.519Z,4.05
2023-03-01T03:34:18.432Z,5.10
2023-03-01T03:36:46.106Z,5.47
2023-03-01T03:39:13.685Z,4.53
2023-03-01T03:41:41.253Z,5.28
2023-03-01T03:44:08.784Z,3.97
2023-03-01T03:46:36.560Z,4.25
2023-03-01T03:49:04.191Z,6.55
2023-03-01T03:51:33.112Z,5.97
2023-03-01T03:54:00.792Z,5.68
2023-03-01T03:56:28.985Z,9.43
2023-03-01T03:58:56.701Z,4.88
2023-03-01T04:01:24.408Z,5.55
2023-03-01T04:03:55.371Z,5.50
2023-03-01T04:06:23.665Z,6.10
2023-03-01T04:09:00.912Z,6.45
2023-03-01T04:11:28.544Z,3.80
2023-03-01T04:13:57.857Z,4.88
2023-03-01T04:16:26.667Z,4.80
2023-03-01T04:18:58.996Z,4.20
2023-03-01T04:21:26.597Z,5.18
2023-03-01T04:23:55.446Z,7.30
2023-03-01T04:26:23.192Z,5.45
2023-03-01T04:28:51.500Z,4.85
2023-03-01T04:31:22.234Z,4.20
2023-03-01T04:33:52.428Z,4.47
2023-03-01T04:36:21.618Z,4.35
2023-03-01T04:38:49.249Z,6.38
2023-03-01T04:41:20.209Z,5.53
2023-03-01T04:43:47.865Z,3.33
2023-03-01T04:46:17.280Z,6.15
2023-03-01T04:48:47.662Z,2.80
2023-03-01T04:51:15.573Z,5.50
2023-03-01T04:53:44.256Z,4.28
2023-03-01T04:56:12.227Z,8.40
2023-03-01T04:58:41.308Z,5.57
2023-03-01T05:01:16.221Z,5.55
2023-03-01T05:03:45.191Z,4.75
2023-03-01T05:06:13.734Z,6.80
2023-03-01T05:08:42.343Z,7.30
2023-03-01T05:11:10.971Z,3.72
2023-03-01T05:13:39.914Z,4.40
2023-03-01T05:16:12.247Z,3.92
2023-03-01T05:18:41.236Z,4.32
2023-03-01T05:21:10.836Z,7.35
2023-03-01T05:23:39.159Z,9.32
2023-03-01T05:26:16.239Z,11.05
2023-03-01T05:28:57.493Z,11.00
2023-03-01T05:31:26.441Z,12.40
2023-03-01T05:33:53.977Z,9.55
2023-03-01T05:36:21.529Z,20.65
2023-03-01T05:38:49.060Z,10.07
2023-03-01T05:41:17.946Z,7.95
2023-03-01T05:43:46.088Z,5.15
2023-03-01T05:46:16.098Z,8.25
2023-03-01T05:48:45.397Z,7.90
2023-03-01T05:51:13.532Z,7.15
2023-03-01T05:53:41.091Z,8.15
2023-03-01T05:56:09.168Z,3.85
2023-03-01T05:58:36.789Z,6.25
2023-03-01T06:01:04.414Z,5.15
2023-03-01T06:03:32.078Z,3.80
2023-03-01T06:06:00.998Z,3.85
2023-03-01T06:08:28.683Z,6.88
2023-03-01T06:10:56.795Z,3.80
2023-03-01T06:13:24.945Z,4.70
2023-03-01T06:15:52.914Z,5.82
2023-03-01T06:18:20.772Z,3.38
2023-03-01T06:20:54.752Z,7.45
2023-03-01T06:23:25.334Z,4.72
2023-03-01T06:25:53.643Z,7.15
2023-03-01T06:28:21.598Z,8.13
2023-03-01T06:30:49.201Z,4.07
2023-03-01T06:33:16.763Z,3.50
2023-03-01T06:35:44.333Z,4.72
2023-03-01T06:38:12.025Z,5.43
2023-03-01T06:40:40.911Z,7.40
2023-03-01T06:43:08.800Z,5.22
2023-03-01T06:45:36.342Z,5.35
2023-03-01T06:48:06.425Z,4.82
2023-03-01T06:50:34.777Z,4.85
2023-03-01T06:53:02.648Z,8.45
2023-03-01T06:55:30.251Z,7.95
2023-03-01T06:58:00.817Z,8.23
2023-03-01T07:00:29.973Z,5.38
2023-03-01T07:03:00.698Z,4.97
2023-03-01T07:05:28.245Z,4.40
2023-03-01T07:07:57.150Z,5.00
2023-03-01T07:10:25.002Z,5.80
2023-03-01T07:12:52.571Z,4.53
2023-03-01T07:15:21.466Z,8.15
2023-03-01T07:17:51.565Z,7.68
2023-03-01T07:20:19.669Z,7.20
2023-03-01T07:22:47.220Z,7.70
2023-03-01T07:25:14.774Z,5.55
2023-03-01T07:27:42.370Z,7.20
2023-03-01T07:30:11.202Z,6.03
2023-03-01T07:32:40.202Z,7.22
2023-03-01T07:35:08.745Z,9.13
2023-03-01T07:37:36.396Z,6.93
2023-03-01T07:40:04.252Z,6.60
2023-03-01T07:42:31.792Z,7.22
2023-03-01T07:44:59.341Z,9.70
2023-03-01T07:47:27.022Z,6.80
2023-03-01T07:49:55.890Z,6.97
2023-03-01T07:52:23.456Z,8.88
2023-03-01T07:54:51.140Z,7.38
2023-03-01T07:57:18.661Z,10.43
2023-03-01T07:59:46.557Z,12.43
2023-03-01T08:02:15.948Z,10.15
2023-03-01T08:04:43.530Z,8.52
2023-03-01T08:07:12.410Z,9.30
2023-03-01T08:09:39.931Z,10.73
2023-03-01T08:12:07.823Z,8.73
2023-03-01T08:14:35.461Z,10.80
2023-03-01T08:17:03.909Z,11.15
2023-03-01T08:19:32.107Z,9.48
2023-03-01T08:22:00.762Z,9.60
2023-03-01T08:24:30.062Z,11.45
2023-03-01T08:26:57.780Z,13.20
2023-03-01T08:29:26.088Z,10.38
2023-03-01T08:31:53.866Z,11.00
2023-03-01T08:34:21.602Z,11.68
2023-03-01T08:36:51.059Z,11.77
2023-03-01T08:39:20.351Z,12.88
2023-03-01T08:41:49.284Z,11.07
2023-03-01T08:44:18.438Z,13.52
2023-03-01T08:46:47.186Z,12.10
2023-03-01T08:49:16.569Z,14.02
2023-03-01T08:51:44.633Z,12.82
2023-03-01T08:54:15.696Z,10.20
2023-03-01T08:56:43.967Z,9.63
2023-03-01T08:59:14.231Z,16.17
2023-03-01T09:01:44.133Z,11.63
2023-03-01T09:04:12.181Z,13.10
2023-03-01T09:06:40.282Z,13.90
2023-03-01T09:09:10.171Z,13.40
2023-03-01T09:11:38.568Z,12.20
2023-03-01T09:14:07.580Z,13.48
2023-03-01T09:16:37.251Z,13.57
2023-03-01T09:19:06.066Z,15.30
2023-03-01T09:21:40.764Z,13.40
2023-03-01T09:24:13.821Z,12.48
2023-03-01T09:26:41.418Z,13.57
2023-03-01T09:29:10.463Z,18.00
2023-03-01T09:31:39.978Z,22.05
2023-03-01T09:34:07.988Z,13.38
2023-03-01T09:36:36.254Z,15.45
2023-03-01T09:39:06.790Z,15.13
2023-03-01T09:41:47.551Z,17.00
2023-03-01T09:44:32.749Z,16.38
2023-03-01T09:47:02.325Z,15.88
2023-03-01T09:49:32.453Z,16.75
2023-03-01T09:52:05.670Z,22.30
2023-03-01T09:54:33.450Z,15.15
2023-03-01T09:57:12.554Z,16.85
2023-03-01T09:59:58.050Z,14.60
2023-03-01T10:02:35.948Z,13.40
2023-03-01T10:05:15.277Z,14.23
2023-03-01T10:07:49.804Z,15.60
2023-03-01T10:10:25.917Z,15.63
2023-03-01T10:12:54.895Z,13.68
2023-03-01T10:15:30.360Z,13.15
2023-03-01T10:18:04.100Z,13.57
2023-03-01T10:20:42.819Z,15.45
2023-03-01T10:23:10.979Z,16.00
2023-03-01T10:25:49.142Z,14.85
2023-03-01T10:28:22.063Z,14.93
2023-03-01T10:30:49.957Z,15.57
2023-03-01T10:33:23.124Z,15.55
2023-03-01T10:35:51.192Z,12.88
2023-03-01T10:38:21.357Z,15.48
2023-03-01T10:40:55.174Z,14.27
2023-03-01T10:43:23.678Z,14.73
2023-03-01T10:45:51.518Z,12.30
2023-03-01T10:48:24.442Z,14.02
2023-03-01T10:51:06.903Z,16.13
2023-03-01T10:53:38.206Z,13.02
2023-03-01T10:56:08.291Z,15.10
2023-03-01T10:58:37.231Z,14.75
2023-03-01T11:01:07.277Z,13.02
2023-03-01T11:03:38.824Z,12.02
2023-03-01T11:06:22.254Z,10.35
2023-03-01T11:08:51.141Z,10.82
2023-03-01T11:11:26.745Z,13.77
2023-03-01T11:13:57.464Z,12.52
2023-03-01T11:16:31.398Z,8.95
2023-03-01T11:19:05.669Z,9.10
2023-03-01T11:21:35.306Z,12.70
2023-03-01T11:24:05.123Z,10.77
2023-03-01T11:26:38.090Z,9.55
2023-03-01T11:29:13.412Z,12.23
2023-03-01T11:31:56.788Z,12.80
2023-03-01T11:34:36.653Z,10.07
2023-03-01T11:37:11.983Z,11.60
2023-03-01T11:39:45.707Z,11.32
2023-03-01T11:42:19.341Z,10.52
2023-03-01T11:44:50.214Z,10.48
2023-03-01T11:47:30.841Z,14.43
2023-03-01T11:50:18.790Z,11.32
2023-03-01T11:52:56.886Z,13.05
2023-03-01T11:55:38.366Z,7.88
2023-03-01T11:58:29.472Z,12.60
2023-03-01T12:01:09.426Z,9.90
2023-03-01T12:04:02.582Z,12.70
2023-03-01T12:06:46.820Z,9.07
2023-03-01T12:09:32.721Z,10.65
2023-03-01T12:12:29.283Z,5.70
2023-03-01T12:15:21.783Z,7.78
2023-03-01T12:18:05.327Z,6.88
2023-03-01T12:20:37.756Z,9.20
2023-03-01T12:23:25.443Z,7.70
2023-03-01T12:26:00.484Z,9.05
2023-03-01T12:28:47.052Z,8.40
2023-03-01T12:31:53.229Z,9.73
2023-03-01T12:34:50.407Z,6.82
2023-03-01T12:37:31.529Z,8.40
2023-03-01T12:40:17.289Z,6.57
2023-03-01T12:42:53.829Z,8.73
2023-03-01T12:45:46.478Z,7.13
2023-03-01T12:48:26.464Z,8.02
2023-03-01T12:50:55.741Z,17.38
2023-03-01T12:53:28.518Z,9.50
2023-03-01T12:56:02.531Z,7.72
2023-03-01T12:58:47.242Z,6.32
2023-03-01T13:01:24.991Z,6.53
2023-03-01T13:04:28.463Z,7.18
2023-03-01T13:07:06.750Z,6.13
2023-03-01T13:09:44.614Z,9.10
2023-03-01T13:12:52.482Z,5.60
2023-03-01T13:15:34.872Z,7.70
2023-03-01T13:18:04.697Z,7.63
2023-03-01T13:20:36.660Z,6.65
2023-03-01T13:23:09.164Z,6.60
2023-03-01T13:25:42.412Z,6.45
2023-03-01T13:28:48.228Z,5.90
2023-03-01T13:32:01.297Z,8.77
2023-03-01T13:34:43.840Z,6.20
2023-03-01T13:37:12.407Z,7.28
2023-03-01T13:39:42.121Z,6.97
2023-03-01T13:42:32.534Z,6.15
2023-03-01T13:45:02.370Z,7.88
2023-03-01T13:47:30.099Z,6.70
2023-03-01T13:49:59.651Z,8.05
2023-03-01T13:52:46.355Z,7.63
2023-03-01T13:55:21.249Z,8.48
2023-03-01T13:57:54.674Z,7.28
2023-03-01T14:00:33.976Z,8.48
2023-03-01T14:03:06.334Z,10.00
2023-03-01T14:05:34.825Z,9.60
2023-03-01T14:08:02.464Z,8.32
2023-03-01T14:10:37.285Z,9.45
2023-03-01T14:13:19.128Z,8.88
2023-03-01T14:15:58.642Z,9.55
2023-03-01T14:18:34.752Z,10.60
2023-03-01T14:21:03.192Z,7.65
2023-03-01T14:23:30.752Z,12.07
2023-03-01T14:25:59.870Z,7.03
2023-03-01T14:28:29.960Z,6.85
2023-03-01T14:31:01.198Z,8.15
2023-03-01T14:33:30.799Z,8.27
2023-03-01T14:36:00.814Z,8.68
2023-03-01T14:38:35.648Z,6.80
2023-03-01T14:41:06.821Z,7.28
2023-03-01T14:43:35.064Z,6.05
2023-03-01T14:46:04.206Z,6.15
2023-03-01T14:48:33.058Z,9.55
2023-03-01T14:51:01.643Z,7.40
2023-03-01T14:53:37.693Z,10.50
2023-03-01T14:56:15.829Z,6.22
2023-03-01T14:58:43.474Z,9.43
2023-03-01T15:01:17.871Z,6.50
2023-03-01T15:03:47.780Z,7.68
2023-03-01T15:06:18.259Z,7.40
2023-03-01T15:08:49.166Z,9.82
2023-03-01T15:11:25.348Z,6.82
2023-03-01T15:13:53.625Z,7.93
2023-03-01T15:16:25.292Z,6.53
2023-03-01T15:18:56.023Z,6.65
2023-03-01T15:21:25.523Z,9.07
2023-03-01T15:23:55.757Z,7.47
2023-03-01T15:26:26.431Z,7.15
2023-03-01T15:28:59.039Z,8.30
2023-03-01T15:31:29.678Z,9.68
2023-03-01T15:34:23.070Z,9.32
2023-03-01T15:36:52.049Z,9.20
2023-03-01T15:39:33.944Z,8.65
2023-03-01T15:42:03.086Z,8.90
2023-03-01T15:44:42.611Z,8.68
2023-03-01T15:47:26.306Z,14.05
2023-03-01T15:49:56.022Z,9.32
2023-03-01T15:52:30.022Z,14.05
2023-03-01T15:54:59.872Z,11.65
2023-03-01T15:57:27.586Z,10.43
2023-03-01T15:59:55.328Z,11.43
2023-03-01T16:02:25.273Z,12.43
2023-03-01T16:04:54.613Z,10.15
2023-03-01T16:07:22.290Z,11.63
2023-03-01T16:09:49.871Z,11.00
2023-03-01T16:12:18.441Z,10.93
2023-03-01T16:14:46.140Z,13.63
2023-03-01T16:17:14.167Z,20.10
2023-03-01T16:19:43.222Z,12.45
2023-03-01T16:22:11.719Z,13.65
2023-03-01T16:24:39.282Z,12.13
2023-03-01T16:27:06.965Z,18.58
2023-03-01T16:29:34.741Z,14.60
2023-03-01T16:32:03.120Z,15.63
2023-03-01T16:34:30.946Z,20.63
2023-03-01T16:36:59.973Z,15.80
2023-03-01T16:39:27.704Z,10.90
2023-03-01T16:41:55.450Z,14.40
2023-03-01T16:44:23.015Z,16.05
2023-03-01T16:46:50.874Z,15.77
2023-03-01T16:49:18.923Z,13.35
2023-03-01T16:51:46.455Z,12.18
2023-03-01T16:54:15.396Z,13.05
2023-03-01T16:56:43.148Z,10.48
2023-03-01T16:59:10.834Z,9.45
2023-03-01T17:01:40.415Z,10.57
2023-03-01T17:04:10.758Z,14.00
2023-03-01T17:06:38.325Z,9.75
2023-03-01T17:09:06.125Z,9.57
2023-03-01T17:11:35.180Z,12.13
2023-03-01T17:14:02.844Z,8.70
2023-03-01T17:16:30.529Z,9.77
2023-03-01T17:18:58.447Z,8.52
2023-03-01T17:21:26.123Z,9.15
2023-03-01T17:23:57.177Z,12.13
2023-03-01T17:26:24.778Z,12.38
2023-03-01T17:28:53.825Z,9.23
2023-03-01T17:31:21.919Z,13.30
2023-03-01T17:33:50.000Z,11.55
2023-03-01T17:36:17.957Z,10.52
2023-03-01T17:38:46.252Z,10.32
2023-03-01T17:41:15.995Z,10.75
2023-03-01T17:43:43.533Z,9.20
2023-03-01T17:46:12.566Z,11.80
2023-03-01T17:48:40.197Z,12.43
2023-03-01T17:51:09.675Z,10.85
2023-03-01T17:53:37.291Z,16.35
2023-03-01T17:56:07.358Z,16.77
2023-03-01T17:58:35.181Z,13.55
2023-03-01T18:01:13.878Z,13.35
2023-03-01T18:03:41.725Z,11.20
2023-03-01T18:06:13.845Z,10.75
2023-03-01T18:08:41.673Z,10.98
2023-03-01T18:11:09.822Z,8.00
2023-03-01T18:13:38.232Z,8.52
2023-03-01T18:16:06.978Z,10.43
2023-03-01T18:18:36.046Z,9.35
2023-03-01T18:21:04.188Z,9.48
2023-03-01T18:23:34.164Z,8.52
2023-03-01T18:26:03.449Z,10.25
2023-03-01T18:28:31.848Z,9.20
2023-03-01T18:30:59.954Z,13.90
2023-03-01T18:33:27.807Z,11.13
2023-03-01T18:35:57.166Z,11.52
2023-03-01T18:38:25.061Z,16.35
2023-03-01T18:40:52.963Z,10.07
2023-03-01T18:43:20.629Z,10.98
2023-03-01T18:45:48.354Z,13.65
2023-03-01T18:48:16.891Z,14.63
2023-03-01T18:50:44.419Z,13.13
2023-03-01T18:53:13.485Z,15.38
2023-03-01T18:55:41.082Z,12.88
2023-03-01T18:58:08.950Z,14.25
2023-03-01T19:00:36.573Z,14.63
2023-03-01T19:03:04.390Z,15.02
2023-03-01T19:05:32.451Z,14.55
2023-03-01T19:08:00.147Z,15.70
2023-03-01T19:10:29.174Z,15.15
2023-03-01T19:12:56.707Z,15.57
2023-03-01T19:15:24.232Z,15.73
2023-03-01T19:17:53.614Z,18.50
2023-03-01T19:20:22.231Z,20.40
2023-03-01T19:22:49.760Z,16.90
2023-03-01T19:25:17.519Z,23.38
2023-03-01T19:27:48.980Z,20.38
2023-03-01T19:30:16.997Z,21.88
2023-03-01T19:32:44.662Z,19.80
2023-03-01T19:35:12.212Z,24.02
2023-03-01T19:37:39.730Z,22.42
2023-03-01T19:40:09.095Z,24.77
2023-03-01T19:42:36.700Z,22.38
2023-03-01T19:45:06.608Z,20.58
2023-03-01T19:47:34.233Z,23.48
2023-03-01T19:50:01.838Z,22.20
2023-03-01T19:52:29.455Z,26.17
2023-03-01T19:55:08.535Z,26.88
2023-03-01T19:57:37.212Z,24.48
2023-03-01T20:00:08.249Z,21.63
2023-03-01T20:02:40.148Z,28.95
2023-03-01T20:05:08.292Z,23.75
2023-03-01T20:07:36.490Z,27.52
2023-03-01T20:10:04.501Z,26.55
2023-03-01T20:12:32.071Z,29.05
2023-03-01T20:14:59.603Z,26.67
2023-03-01T20:17:28.520Z,28.88
2023-03-01T20:19:56.199Z,27.98
2023-03-01T20:22:26.869Z,27.90
2023-03-01T20:24:54.770Z,29.98
2023-03-01T20:27:22.342Z,28.85
2023-03-01T20:29:50.120Z,26.95
2023-03-01T20:32:18.019Z,29.13
2023-03-01T20:34:47.126Z,26.65
2023-03-01T20:37:14.851Z,26.27
2023-03-01T20:39:42.486Z,28.38
2023-03-01T20:42:10.204Z,28.27
2023-03-01T20:44:42.972Z,26.60
2023-03-01T20:47:10.846Z,28.00
2023-03-01T20:49:38.705Z,33.83
2023-03-01T20:52:07.869Z,26.48
2023-03-01T20:54:35.439Z,26.15
2023-03-01T20:57:03.050Z,29.92
2023-03-01T20:59:30.580Z,25.40
2023-03-01T21:01:58.222Z,29.58
2023-03-01T21:04:25.914Z,25.67
2023-03-01T21:06:53.613Z,26.05
2023-03-01T21:09:22.664Z,28.25
2023-03-01T21:11:53.921Z,26.63
2023-03-01T21:14:22.504Z,25.40
2023-03-01T21:16:50.416Z,26.88
2023-03-01T21:19:25.873Z,22.98
2023-03-01T21:21:53.719Z,29.33
2023-03-01T21:24:22.708Z,25.73
2023-03-01T21:26:50.368Z,25.27
2023-03-01T21:29:18.058Z,32.65
2023-03-01T21:31:47.541Z,26.10
2023-03-01T21:34:15.383Z,23.80
2023-03-01T21:36:43.363Z,24.50
2023-03-01T21:39:11.940Z,24.83
2023-03-01T21:41:41.302Z,25.83
2023-03-01T21:44:09.258Z,24.63
2023-03-01T21:46:38.782Z,27.63
2023-03-01T21:49:07.278Z,24.73
2023-03-01T21:51:36.403Z,28.42
2023-03-01T21:54:04.330Z,28.52
2023-03-01T21:56:35.102Z,28.15
2023-03-01T21:59:04.870Z,30.20
2023-03-01T22:01:32.842Z,26.30
2023-03-01T22:04:03.254Z,27.35
2023-03-01T22:06:34.107Z,25.73
2023-03-01T22:09:04.634Z,28.10
2023-03-01T22:11:33.776Z,27.35
2023-03-01T22:14:01.464Z,25.83
2023-03-01T22:16:32.825Z,23.27
2023-03-01T22:19:01.582Z,25.50
2023-03-01T22:21:29.370Z,24.25
2023-03-01T22:23:57.312Z,26.52
2023-03-01T22:26:27.200Z,28.80
2023-03-01T22:28:56.711Z,22.88
2023-03-01T22:31:25.310Z,20.75
2023-03-01T22:33:55.742Z,23.65
2023-03-01T22:36:23.265Z,24.55
2023-03-01T22:38:52.241Z,26.90
2023-03-01T22:41:19.828Z,25.92
2023-03-01T22:43:47.373Z,25.70
2023-03-01T22:46:18.053Z,23.25
2023-03-01T22:48:46.591Z,25.92
2023-03-01T22:51:20.478Z,24.30
2023-03-01T22:53:48.137Z,24.60
2023-03-01T22:56:17.948Z,25.10
2023-03-01T22:58:45.626Z,22.88
2023-03-01T23:01:15.759Z,24.65
2023-03-01T23:03:43.412Z,23.98
2023-03-01T23:06:11.775Z,23.92
2023-03-01T23:08:40.788Z,24.73
2023-03-01T23:11:12.687Z,24.63
2023-03-01T23:13:41.080Z,23.10
2023-03-01T23:16:09.254Z,23.58
2023-03-01T23:18:37.587Z,25.90
2023-03-01T23:21:09.482Z,23.42
2023-03-01T23:23:37.043Z,24.98
2023-03-01T23:26:07.093Z,24.20
2023-03-01T23:28:36.659Z,22.58
2023-03-01T23:31:06.427Z,26.67
2023-03-01T23:33:37.576Z,27.77
2023-03-01T23:36:06.636Z,26.95
2023-03-01T23:38:34.530Z,24.80
2023-03-01T23:41:02.325Z,25.75
2023-03-01T23:43:33.047Z,22.85
2023-03-01T23:46:00.685Z,23.88
2023-03-01T23:48:28.471Z,24.13
2023-03-01T23:50:58.112Z,21.38
2023-03-01T23:53:25.855Z,23.73
2023-03-01T23:55:55.917Z,24.90
2023-03-01T23:58:28.286Z,21.90
